sensor_id;sensor_type;location;lat;lon;timestamp;P1;durP1;ratioP1;P2;durP2;ratioP2
57297;SDS011;43147;50.972;18.210;2023-05-14T00:01:19;15.00;;;8.20;;
57297;SDS011;43147;50.972;18.210;2023-05-14T00:03:44;21.30;;;9.20;;
57297;SDS011;43147;50.972;18.210;2023-05-14T00:06:10;14.80;;;9.00;;
57297;SDS011;43147;50.972;18.210;2023-05-14T00:08:36;16.90;;;9.60;;
57297;SDS011;43147;50.972;18.210;2023-05-14T00:11:01;15.80;;;9.00;;
57297;SDS011;43147;50.972;18.210;2023-05-14T00:13:27;11.50;;;8.40;;
57297;SDS011;43147;50.972;18.210;2023-05-14T00:15:52;20.70;;;10.50;;
57297;SDS011;43147;50.972;18.210;2023-05-14T00:18:18;15.50;;;9.60;;
57297;SDS011;43147;50.972;18.210;2023-05-14T00:20:44;16.50;;;10.90;;
57297;SDS011;43147;50.972;18.210;2023-05-14T00:23:09;21.20;;;10.20;;
57297;SDS011;43147;50.972;18.210;2023-05-14T00:25:35;23.00;;;10.50;;
57297;SDS011;43147;50.972;18.210;2023-05-14T00:28:02;16.80;;;10.50;;
57297;SDS011;43147;50.972;18.210;2023-05-14T00:30:28;15.10;;;9.40;;
57297;SDS011;43147;50.972;18.210;2023-05-14T00:32:53;14.30;;;10.50;;
57297;SDS011;43147;50.972;18.210;2023-05-14T00:35:19;19.60;;;9.90;;
57297;SDS011;43147;50.972;18.210;2023-05-14T00:37:45;17.40;;;10.30;;
57297;SDS011;43147;50.972;18.210;2023-05-14T00:40:11;16.50;;;9.90;;
57297;SDS011;43147;50.972;18.210;2023-05-14T00:42:40;13.10;;;9.50;;
57297;SDS011;43147;50.972;18.210;2023-05-14T00:45:06;15.00;;;9.40;;
57297;SDS011;43147;50.972;18.210;2023-05-14T00:47:34;17.80;;;9.20;;
57297;SDS011;43147;50.972;18.210;2023-05-14T00:50:01;17.80;;;8.70;;
57297;SDS011;43147;50.972;18.210;2023-05-14T00:52:28;16.40;;;10.30;;
57297;SDS011;43147;50.972;18.210;2023-05-14T00:54:53;14.30;;;9.20;;
57297;SDS011;43147;50.972;18.210;2023-05-14T00:57:19;16.20;;;8.80;;
57297;SDS011;43147;50.972;18.210;2023-05-14T00:59:46;16.00;;;9.00;;
57297;SDS011;43147;50.972;18.210;2023-05-14T01:02:11;14.80;;;9.20;;
57297;SDS011;43147;50.972;18.210;2023-05-14T01:04:37;15.10;;;8.70;;
57297;SDS011;43147;50.972;18.210;2023-05-14T01:07:19;17.70;;;10.20;;
57297;SDS011;43147;50.972;18.210;2023-05-14T01:09:52;14.10;;;9.30;;
57297;SDS011;43147;50.972;18.210;2023-05-14T01:12:45;12.10;;;8.60;;
57297;SDS011;43147;50.972;18.210;2023-05-14T01:15:27;15.60;;;9.90;;
57297;SDS011;43147;50.972;18.210;2023-05-14T01:17:58;17.90;;;9.80;;
57297;SDS011;43147;50.972;18.210;2023-05-14T01:20:25;18.60;;;9.70;;
57297;SDS011;43147;50.972;18.210;2023-05-14T01:22:51;14.30;;;9.90;;
57297;SDS011;43147;50.972;18.210;2023-05-14T01:25:16;16.80;;;10.30;;
57297;SDS011;43147;50.972;18.210;2023-05-14T01:27:47;17.10;;;9.50;;
57297;SDS011;43147;50.972;18.210;2023-05-14T01:30:18;19.10;;;10.20;;
57297;SDS011;43147;50.972;18.210;2023-05-14T01:32:50;18.40;;;10.50;;
57297;SDS011;43147;50.972;18.210;2023-05-14T01:35:17;19.50;;;10.40;;
57297;SDS011;43147;50.972;18.210;2023-05-14T01:37:44;15.90;;;10.60;;
57297;SDS011;43147;50.972;18.210;2023-05-14T01:40:10;21.50;;;9.90;;
57297;SDS011;43147;50.972;18.210;2023-05-14T01:42:36;16.10;;;9.70;;
57297;SDS011;43147;50.972;18.210;2023-05-14T01:45:02;19.70;;;11.00;;
57297;SDS011;43147;50.972;18.210;2023-05-14T01:47:28;15.60;;;9.80;;
57297;SDS011;43147;50.972;18.210;2023-05-14T01:49:54;19.60;;;11.00;;
57297;SDS011;43147;50.972;18.210;2023-05-14T01:52:19;20.50;;;10.50;;
57297;SDS011;43147;50.972;18.210;2023-05-14T01:54:48;15.90;;;9.90;;
57297;SDS011;43147;50.972;18.210;2023-05-14T01:57:14;18.00;;;11.70;;
57297;SDS011;43147;50.972;18.210;2023-05-14T01:59:40;18.80;;;10.40;;
57297;SDS011;43147;50.972;18.210;2023-05-14T02:02:06;23.90;;;10.40;;
57297;SDS011;43147;50.972;18.210;2023-05-14T02:04:31;17.90;;;10.40;;
57297;SDS011;43147;50.972;18.210;2023-05-14T02:06:57;16.60;;;9.20;;
57297;SDS011;43147;50.972;18.210;2023-05-14T02:09:22;19.90;;;11.50;;
57297;SDS011;43147;50.972;18.210;2023-05-14T02:11:48;17.70;;;10.00;;
57297;SDS011;43147;50.972;18.210;2023-05-14T02:14:14;17.60;;;10.30;;
57297;SDS011;43147;50.972;18.210;2023-05-14T02:16:40;20.80;;;12.10;;
57297;SDS011;43147;50.972;18.210;2023-05-14T02:19:06;19.40;;;10.80;;
57297;SDS011;43147;50.972;18.210;2023-05-14T02:21:32;20.80;;;10.80;;
57297;SDS011;43147;50.972;18.210;2023-05-14T02:23:58;18.40;;;11.00;;
57297;SDS011;43147;50.972;18.210;2023-05-14T02:26:23;20.80;;;11.20;;
57297;SDS011;43147;50.972;18.210;2023-05-14T02:28:49;20.50;;;11.60;;
57297;SDS011;43147;50.972;18.210;2023-05-14T02:31:15;23.90;;;11.70;;
57297;SDS011;43147;50.972;18.210;2023-05-14T02:33:43;19.80;;;11.60;;
57297;SDS011;43147;50.972;18.210;2023-05-14T02:36:09;22.30;;;11.50;;
57297;SDS011;43147;50.972;18.210;2023-05-14T02:38:35;24.10;;;11.40;;
57297;SDS011;43147;50.972;18.210;2023-05-14T02:41:00;23.00;;;11.90;;
57297;SDS011;43147;50.972;18.210;2023-05-14T02:43:26;22.00;;;12.10;;
57297;SDS011;43147;50.972;18.210;2023-05-14T02:45:51;21.10;;;12.10;;
57297;SDS011;43147;50.972;18.210;2023-05-14T02:48:17;26.60;;;13.60;;
57297;SDS011;43147;50.972;18.210;2023-05-14T02:50:42;26.10;;;12.30;;
57297;SDS011;43147;50.972;18.210;2023-05-14T02:53:08;24.70;;;12.40;;
57297;SDS011;43147;50.972;18.210;2023-05-14T02:55:34;19.60;;;11.70;;
57297;SDS011;43147;50.972;18.210;2023-05-14T02:58:00;21.00;;;11.30;;
57297;SDS011;43147;50.972;18.210;2023-05-14T03:00:25;18.20;;;11.60;;
57297;SDS011;43147;50.972;18.210;2023-05-14T03:02:51;20.40;;;12.20;;
57297;SDS011;43147;50.972;18.210;2023-05-14T03:05:17;19.60;;;11.70;;
57297;SDS011;43147;50.972;18.210;2023-05-14T03:07:42;25.10;;;12.30;;
57297;SDS011;43147;50.972;18.210;2023-05-14T03:10:08;18.00;;;11.60;;
57297;SDS011;43147;50.972;18.210;2023-05-14T03:12:34;25.40;;;12.90;;
57297;SDS011;43147;50.972;18.210;2023-05-14T03:15:00;25.80;;;14.10;;
57297;SDS011;43147;50.972;18.210;2023-05-14T03:17:25;24.20;;;13.70;;
57297;SDS011;43147;50.972;18.210;2023-05-14T03:19:51;23.80;;;13.80;;
57297;SDS011;43147;50.972;18.210;2023-05-14T03:22:17;20.70;;;13.40;;
57297;SDS011;43147;50.972;18.210;2023-05-14T03:24:42;26.60;;;13.30;;
57297;SDS011;43147;50.972;18.210;2023-05-14T03:27:08;28.90;;;13.60;;
57297;SDS011;43147;50.972;18.210;2023-05-14T03:29:34;21.80;;;12.60;;
57297;SDS011;43147;50.972;18.210;2023-05-14T03:31:59;25.70;;;12.90;;
57297;SDS011;43147;50.972;18.210;2023-05-14T03:34:25;22.90;;;12.20;;
57297;SDS011;43147;50.972;18.210;2023-05-14T03:36:50;19.60;;;11.10;;
57297;SDS011;43147;50.972;18.210;2023-05-14T03:39:17;21.90;;;11.30;;
57297;SDS011;43147;50.972;18.210;2023-05-14T03:41:45;23.30;;;11.70;;
57297;SDS011;43147;50.972;18.210;2023-05-14T03:44:11;21.40;;;13.20;;
57297;SDS011;43147;50.972;18.210;2023-05-14T03:46:37;22.90;;;13.90;;
57297;SDS011;43147;50.972;18.210;2023-05-14T03:49:02;23.30;;;13.90;;
57297;SDS011;43147;50.972;18.210;2023-05-14T03:51:28;28.40;;;13.30;;
57297;SDS011;43147;50.972;18.210;2023-05-14T03:53:54;31.90;;;15.00;;
57297;SDS011;43147;50.972;18.210;2023-05-14T03:56:19;23.40;;;13.10;;
57297;SDS011;43147;50.972;18.210;2023-05-14T03:58:45;20.40;;;12.50;;
57297;SDS011;43147;50.972;18.210;2023-05-14T04:01:10;23.30;;;14.80;;
57297;SDS011;43147;50.972;18.210;2023-05-14T04:03:36;28.80;;;13.70;;
57297;SDS011;43147;50.972;18.210;2023-05-14T04:06:03;24.80;;;14.40;;
57297;SDS011;43147;50.972;18.210;2023-05-14T04:08:29;23.80;;;14.40;;
57297;SDS011;43147;50.972;18.210;2023-05-14T04:10:55;23.10;;;14.60;;
57297;SDS011;43147;50.972;18.210;2023-05-14T04:13:21;23.80;;;13.50;;
57297;SDS011;43147;50.972;18.210;2023-05-14T04:15:46;23.90;;;13.80;;
57297;SDS011;43147;50.972;18.210;2023-05-14T04:18:12;20.00;;;12.90;;
57297;SDS011;43147;50.972;18.210;2023-05-14T04:20:37;22.90;;;13.20;;
57297;SDS011;43147;50.972;18.210;2023-05-14T04:23:03;26.40;;;13.70;;
57297;SDS011;43147;50.972;18.210;2023-05-14T04:25:28;26.70;;;15.00;;
57297;SDS011;43147;50.972;18.210;2023-05-14T04:27:54;23.60;;;13.70;;
57297;SDS011;43147;50.972;18.210;2023-05-14T04:30:20;24.30;;;13.20;;
57297;SDS011;43147;50.972;18.210;2023-05-14T04:32:45;29.70;;;13.60;;
57297;SDS011;43147;50.972;18.210;2023-05-14T04:35:11;22.50;;;13.20;;
57297;SDS011;43147;50.972;18.210;2023-05-14T04:37:37;24.40;;;13.70;;
57297;SDS011;43147;50.972;18.210;2023-05-14T04:40:07;20.90;;;13.10;;
57297;SDS011;43147;50.972;18.210;2023-05-14T04:42:35;21.20;;;12.40;;
57297;SDS011;43147;50.972;18.210;2023-05-14T04:45:01;22.20;;;12.90;;
57297;SDS011;43147;50.972;18.210;2023-05-14T04:47:29;21.10;;;12.10;;
57297;SDS011;43147;50.972;18.210;2023-05-14T04:49:55;16.70;;;12.40;;
57297;SDS011;43147;50.972;18.210;2023-05-14T04:52:22;23.40;;;13.20;;
57297;SDS011;43147;50.972;18.210;2023-05-14T04:54:48;16.50;;;11.50;;
57297;SDS011;43147;50.972;18.210;2023-05-14T04:57:14;19.80;;;11.50;;
57297;SDS011;43147;50.972;18.210;2023-05-14T04:59:40;17.10;;;10.40;;
57297;SDS011;43147;50.972;18.210;2023-05-14T05:02:06;16.50;;;9.30;;
57297;SDS011;43147;50.972;18.210;2023-05-14T05:04:31;13.90;;;10.70;;
57297;SDS011;43147;50.972;18.210;2023-05-14T05:06:57;13.30;;;10.50;;
57297;SDS011;43147;50.972;18.210;2023-05-14T05:09:23;15.20;;;11.60;;
57297;SDS011;43147;50.972;18.210;2023-05-14T05:11:48;12.50;;;10.40;;
57297;SDS011;43147;50.972;18.210;2023-05-14T05:14:14;15.10;;;9.90;;
57297;SDS011;43147;50.972;18.210;2023-05-14T05:16:40;13.40;;;10.80;;
57297;SDS011;43147;50.972;18.210;2023-05-14T05:19:06;16.50;;;11.20;;
57297;SDS011;43147;50.972;18.210;2023-05-14T05:21:31;14.30;;;10.80;;
57297;SDS011;43147;50.972;18.210;2023-05-14T05:23:57;12.50;;;9.50;;
57297;SDS011;43147;50.972;18.210;2023-05-14T05:26:23;16.60;;;9.60;;
57297;SDS011;43147;50.972;18.210;2023-05-14T05:28:51;13.30;;;9.30;;
57297;SDS011;43147;50.972;18.210;2023-05-14T05:31:16;10.50;;;9.10;;
57297;SDS011;43147;50.972;18.210;2023-05-14T05:33:42;12.10;;;7.40;;
57297;SDS011;43147;50.972;18.210;2023-05-14T05:36:08;9.50;;;7.50;;
57297;SDS011;43147;50.972;18.210;2023-05-14T05:38:34;9.40;;;6.80;;
57297;SDS011;43147;50.972;18.210;2023-05-14T05:41:00;10.80;;;7.20;;
57297;SDS011;43147;50.972;18.210;2023-05-14T05:43:25;11.20;;;6.30;;
57297;SDS011;43147;50.972;18.210;2023-05-14T05:45:52;7.10;;;5.40;;
57297;SDS011;43147;50.972;18.210;2023-05-14T05:48:18;8.20;;;5.00;;
57297;SDS011;43147;50.972;18.210;2023-05-14T05:50:48;6.30;;;5.00;;
57297;SDS011;43147;50.972;18.210;2023-05-14T05:53:14;7.10;;;4.90;;
57297;SDS011;43147;50.972;18.210;2023-05-14T05:55:42;6.40;;;4.50;;
57297;SDS011;43147;50.972;18.210;2023-05-14T05:58:08;4.70;;;4.00;;
57297;SDS011;43147;50.972;18.210;2023-05-14T06:00:33;4.90;;;3.60;;
57297;SDS011;43147;50.972;18.210;2023-05-14T06:02:59;4.30;;;3.90;;
57297;SDS011;43147;50.972;18.210;2023-05-14T06:05:25;4.60;;;3.20;;
57297;SDS011;43147;50.972;18.210;2023-05-14T06:07:51;4.10;;;3.30;;
57297;SDS011;43147;50.972;18.210;2023-05-14T06:10:19;5.30;;;4.20;;
57297;SDS011;43147;50.972;18.210;2023-05-14T06:12:45;6.40;;;4.20;;
57297;SDS011;43147;50.972;18.210;2023-05-14T06:15:10;5.10;;;3.50;;
57297;SDS011;43147;50.972;18.210;2023-05-14T06:17:37;3.30;;;3.00;;
57297;SDS011;43147;50.972;18.210;2023-05-14T06:20:03;4.30;;;2.80;;
57297;SDS011;43147;50.972;18.210;2023-05-14T06:22:29;2.70;;;1.90;;
57297;SDS011;43147;50.972;18.210;2023-05-14T06:24:55;5.10;;;2.30;;
57297;SDS011;43147;50.972;18.210;2023-05-14T06:27:23;3.90;;;2.00;;
57297;SDS011;43147;50.972;18.210;2023-05-14T06:29:49;2.40;;;1.80;;
57297;SDS011;43147;50.972;18.210;2023-05-14T06:32:15;3.10;;;1.60;;
57297;SDS011;43147;50.972;18.210;2023-05-14T06:34:41;2.70;;;1.40;;
57297;SDS011;43147;50.972;18.210;2023-05-14T06:37:07;2.60;;;1.00;;
57297;SDS011;43147;50.972;18.210;2023-05-14T06:39:36;1.70;;;1.40;;
57297;SDS011;43147;50.972;18.210;2023-05-14T06:42:02;2.00;;;1.20;;
57297;SDS011;43147;50.972;18.210;2023-05-14T06:44:28;1.50;;;1.20;;
57297;SDS011;43147;50.972;18.210;2023-05-14T06:46:54;2.20;;;1.00;;
57297;SDS011;43147;50.972;18.210;2023-05-14T06:49:19;1.70;;;1.00;;
57297;SDS011;43147;50.972;18.210;2023-05-14T06:51:45;1.30;;;1.20;;
57297;SDS011;43147;50.972;18.210;2023-05-14T06:54:11;1.40;;;1.10;;
57297;SDS011;43147;50.972;18.210;2023-05-14T06:56:37;2.20;;;1.40;;
57297;SDS011;43147;50.972;18.210;2023-05-14T06:59:03;1.60;;;1.30;;
57297;SDS011;43147;50.972;18.210;2023-05-14T07:01:28;3.20;;;1.50;;
57297;SDS011;43147;50.972;18.210;2023-05-14T07:03:54;2.90;;;1.40;;
57297;SDS011;43147;50.972;18.210;2023-05-14T07:06:20;1.80;;;1.30;;
57297;SDS011;43147;50.972;18.210;2023-05-14T07:08:46;1.50;;;1.20;;
57297;SDS011;43147;50.972;18.210;2023-05-14T07:11:12;1.90;;;1.30;;
57297;SDS011;43147;50.972;18.210;2023-05-14T07:13:38;4.60;;;1.40;;
57297;SDS011;43147;50.972;18.210;2023-05-14T07:16:05;2.20;;;1.30;;
57297;SDS011;43147;50.972;18.210;2023-05-14T07:18:33;2.30;;;1.30;;
57297;SDS011;43147;50.972;18.210;2023-05-14T07:20:59;1.90;;;1.30;;
57297;SDS011;43147;50.972;18.210;2023-05-14T07:23:25;1.50;;;1.10;;
57297;SDS011;43147;50.972;18.210;2023-05-14T07:25:50;1.30;;;1.20;;
57297;SDS011;43147;50.972;18.210;2023-05-14T07:28:16;1.90;;;1.40;;
57297;SDS011;43147;50.972;18.210;2023-05-14T07:30:42;1.60;;;1.30;;
57297;SDS011;43147;50.972;18.210;2023-05-14T07:33:07;1.90;;;1.40;;
57297;SDS011;43147;50.972;18.210;2023-05-14T07:35:33;3.50;;;1.40;;
57297;SDS011;43147;50.972;18.210;2023-05-14T07:37:59;3.00;;;1.70;;
57297;SDS011;43147;50.972;18.210;2023-05-14T07:40:25;2.10;;;1.70;;
57297;SDS011;43147;50.972;18.210;2023-05-14T07:42:51;2.00;;;1.70;;
57297;SDS011;43147;50.972;18.210;2023-05-14T07:45:17;1.60;;;1.30;;
57297;SDS011;43147;50.972;18.210;2023-05-14T07:47:42;2.10;;;1.80;;
57297;SDS011;43147;50.972;18.210;2023-05-14T07:50:08;3.40;;;1.60;;
57297;SDS011;43147;50.972;18.210;2023-05-14T07:52:37;1.70;;;1.50;;
57297;SDS011;43147;50.972;18.210;2023-05-14T07:55:02;1.70;;;1.30;;
57297;SDS011;43147;50.972;18.210;2023-05-14T07:57:28;2.60;;;1.40;;
57297;SDS011;43147;50.972;18.210;2023-05-14T07:59:55;1.10;;;1.00;;
57297;SDS011;43147;50.972;18.210;2023-05-14T08:02:20;2.00;;;1.10;;
57297;SDS011;43147;50.972;18.210;2023-05-14T08:04:46;1.30;;;1.00;;
57297;SDS011;43147;50.972;18.210;2023-05-14T08:07:11;1.10;;;0.90;;
57297;SDS011;43147;50.972;18.210;2023-05-14T08:09:37;2.60;;;0.90;;
57297;SDS011;43147;50.972;18.210;2023-05-14T08:12:03;2.10;;;1.00;;
57297;SDS011;43147;50.972;18.210;2023-05-14T08:14:29;2.60;;;0.80;;
57297;SDS011;43147;50.972;18.210;2023-05-14T08:16:55;1.40;;;0.90;;
57297;SDS011;43147;50.972;18.210;2023-05-14T08:19:21;1.80;;;0.80;;
57297;SDS011;43147;50.972;18.210;2023-05-14T08:21:47;1.00;;;0.80;;
57297;SDS011;43147;50.972;18.210;2023-05-14T08:24:13;2.00;;;1.00;;
57297;SDS011;43147;50.972;18.210;2023-05-14T08:26:39;1.80;;;1.40;;
57297;SDS011;43147;50.972;18.210;2023-05-14T08:29:04;3.20;;;1.10;;
57297;SDS011;43147;50.972;18.210;2023-05-14T08:31:30;1.90;;;1.20;;
57297;SDS011;43147;50.972;18.210;2023-05-14T08:33:55;2.50;;;1.30;;
57297;SDS011;43147;50.972;18.210;2023-05-14T08:36:21;2.00;;;1.20;;
57297;SDS011;43147;50.972;18.210;2023-05-14T08:38:46;1.80;;;1.20;;
57297;SDS011;43147;50.972;18.210;2023-05-14T08:41:12;1.70;;;1.10;;
57297;SDS011;43147;50.972;18.210;2023-05-14T08:46:17;2.20;;;1.30;;
57297;SDS011;43147;50.972;18.210;2023-05-14T08:48:47;4.20;;;1.40;;
57297;SDS011;43147;50.972;18.210;2023-05-14T08:51:18;1.90;;;1.20;;
57297;SDS011;43147;50.972;18.210;2023-05-14T08:53:43;1.40;;;1.20;;
57297;SDS011;43147;50.972;18.210;2023-05-14T08:56:09;4.60;;;1.40;;
57297;SDS011;43147;50.972;18.210;2023-05-14T08:58:35;2.20;;;1.20;;
57297;SDS011;43147;50.972;18.210;2023-05-14T09:01:00;1.30;;;1.20;;
57297;SDS011;43147;50.972;18.210;2023-05-14T09:03:26;1.40;;;1.30;;
57297;SDS011;43147;50.972;18.210;2023-05-14T09:05:53;2.50;;;1.50;;
57297;SDS011;43147;50.972;18.210;2023-05-14T09:08:19;2.90;;;1.50;;
57297;SDS011;43147;50.972;18.210;2023-05-14T09:10:45;3.20;;;1.40;;
57297;SDS011;43147;50.972;18.210;2023-05-14T09:13:11;2.50;;;1.50;;
57297;SDS011;43147;50.972;18.210;2023-05-14T09:15:36;2.40;;;1.10;;
57297;SDS011;43147;50.972;18.210;2023-05-14T09:18:05;1.70;;;1.30;;
57297;SDS011;43147;50.972;18.210;2023-05-14T09:20:31;1.50;;;1.40;;
57297;SDS011;43147;50.972;18.210;2023-05-14T09:22:59;1.50;;;1.20;;
57297;SDS011;43147;50.972;18.210;2023-05-14T09:25:26;2.80;;;1.20;;
57297;SDS011;43147;50.972;18.210;2023-05-14T09:27:52;2.00;;;1.20;;
57297;SDS011;43147;50.972;18.210;2023-05-14T09:30:19;2.70;;;1.20;;
57297;SDS011;43147;50.972;18.210;2023-05-14T09:32:45;2.00;;;1.60;;
57297;SDS011;43147;50.972;18.210;2023-05-14T09:35:12;1.90;;;1.40;;
57297;SDS011;43147;50.972;18.210;2023-05-14T09:37:48;2.10;;;1.40;;
57297;SDS011;43147;50.972;18.210;2023-05-14T09:40:16;2.90;;;1.40;;
57297;SDS011;43147;50.972;18.210;2023-05-14T09:42:43;1.30;;;1.20;;
57297;SDS011;43147;50.972;18.210;2023-05-14T09:45:09;2.20;;;1.60;;
57297;SDS011;43147;50.972;18.210;2023-05-14T09:47:35;1.80;;;1.30;;
57297;SDS011;43147;50.972;18.210;2023-05-14T09:50:02;3.60;;;1.30;;
57297;SDS011;43147;50.972;18.210;2023-05-14T09:52:28;1.50;;;1.20;;
57297;SDS011;43147;50.972;18.210;2023-05-14T09:54:54;4.00;;;1.20;;
57297;SDS011;43147;50.972;18.210;2023-05-14T09:57:20;1.40;;;1.20;;
57297;SDS011;43147;50.972;18.210;2023-05-14T09:59:46;1.40;;;1.20;;
57297;SDS011;43147;50.972;18.210;2023-05-14T10:02:18;3.00;;;1.90;;
57297;SDS011;43147;50.972;18.210;2023-05-14T10:04:48;1.30;;;1.10;;
57297;SDS011;43147;50.972;18.210;2023-05-14T10:07:16;1.50;;;1.00;;
57297;SDS011;43147;50.972;18.210;2023-05-14T10:09:44;1.60;;;1.10;;
57297;SDS011;43147;50.972;18.210;2023-05-14T10:12:10;2.90;;;1.80;;
57297;SDS011;43147;50.972;18.210;2023-05-14T10:14:39;4.10;;;1.20;;
57297;SDS011;43147;50.972;18.210;2023-05-14T10:17:05;1.60;;;1.40;;
57297;SDS011;43147;50.972;18.210;2023-05-14T10:19:32;2.50;;;1.20;;
57297;SDS011;43147;50.972;18.210;2023-05-14T10:22:06;3.30;;;0.90;;
57297;SDS011;43147;50.972;18.210;2023-05-14T10:24:32;1.70;;;1.10;;
57297;SDS011;43147;50.972;18.210;2023-05-14T10:26:58;3.50;;;1.20;;
57297;SDS011;43147;50.972;18.210;2023-05-14T10:29:34;1.70;;;1.10;;
57297;SDS011;43147;50.972;18.210;2023-05-14T10:32:05;1.20;;;0.90;;
57297;SDS011;43147;50.972;18.210;2023-05-14T10:34:35;1.40;;;1.00;;
57297;SDS011;43147;50.972;18.210;2023-05-14T10:37:03;3.90;;;1.20;;
57297;SDS011;43147;50.972;18.210;2023-05-14T10:42:27;1.20;;;0.90;;
57297;SDS011;43147;50.972;18.210;2023-05-14T10:45:00;2.90;;;1.10;;
57297;SDS011;43147;50.972;18.210;2023-05-14T10:47:31;4.80;;;1.60;;
57297;SDS011;43147;50.972;18.210;2023-05-14T10:49:58;3.20;;;1.20;;
57297;SDS011;43147;50.972;18.210;2023-05-14T10:52:26;1.60;;;1.00;;
57297;SDS011;43147;50.972;18.210;2023-05-14T10:54:57;1.40;;;1.10;;
57297;SDS011;43147;50.972;18.210;2023-05-14T10:57:25;1.20;;;1.00;;
57297;SDS011;43147;50.972;18.210;2023-05-14T10:59:52;2.20;;;1.10;;
57297;SDS011;43147;50.972;18.210;2023-05-14T11:02:20;1.70;;;1.10;;
57297;SDS011;43147;50.972;18.210;2023-05-14T11:07:22;1.70;;;1.10;;
57297;SDS011;43147;50.972;18.210;2023-05-14T11:09:49;4.80;;;1.20;;
57297;SDS011;43147;50.972;18.210;2023-05-14T11:12:16;1.60;;;1.20;;
57297;SDS011;43147;50.972;18.210;2023-05-14T11:14:42;2.30;;;1.40;;
57297;SDS011;43147;50.972;18.210;2023-05-14T11:17:08;1.50;;;1.40;;
57297;SDS011;43147;50.972;18.210;2023-05-14T11:19:34;2.60;;;1.50;;
57297;SDS011;43147;50.972;18.210;2023-05-14T11:22:00;2.10;;;1.60;;
57297;SDS011;43147;50.972;18.210;2023-05-14T11:24:25;2.60;;;1.70;;
57297;SDS011;43147;50.972;18.210;2023-05-14T11:26:51;3.40;;;1.90;;
57297;SDS011;43147;50.972;18.210;2023-05-14T11:29:19;1.70;;;1.60;;
57297;SDS011;43147;50.972;18.210;2023-05-14T11:31:45;3.30;;;2.00;;
57297;SDS011;43147;50.972;18.210;2023-05-14T11:34:12;2.20;;;1.80;;
57297;SDS011;43147;50.972;18.210;2023-05-14T11:36:37;2.70;;;2.00;;
57297;SDS011;43147;50.972;18.210;2023-05-14T11:39:03;3.00;;;1.90;;
57297;SDS011;43147;50.972;18.210;2023-05-14T11:41:29;2.20;;;1.90;;
57297;SDS011;43147;50.972;18.210;2023-05-14T11:43:55;2.90;;;2.10;;
57297;SDS011;43147;50.972;18.210;2023-05-14T11:46:22;3.70;;;2.10;;
57297;SDS011;43147;50.972;18.210;2023-05-14T11:48:48;3.40;;;2.20;;
57297;SDS011;43147;50.972;18.210;2023-05-14T11:51:14;2.80;;;2.00;;
57297;SDS011;43147;50.972;18.210;2023-05-14T11:53:39;4.10;;;2.20;;
57297;SDS011;43147;50.972;18.210;2023-05-14T11:56:05;5.30;;;2.00;;
57297;SDS011;43147;50.972;18.210;2023-05-14T11:58:31;3.70;;;2.20;;
57297;SDS011;43147;50.972;18.210;2023-05-14T12:00:58;2.50;;;2.00;;
57297;SDS011;43147;50.972;18.210;2023-05-14T12:03:24;3.60;;;2.30;;
57297;SDS011;43147;50.972;18.210;2023-05-14T12:06:08;2.80;;;2.40;;
57297;SDS011;43147;50.972;18.210;2023-05-14T12:08:34;2.90;;;2.30;;
57297;SDS011;43147;50.972;18.210;2023-05-14T12:11:01;3.00;;;2.60;;
57297;SDS011;43147;50.972;18.210;2023-05-14T12:13:30;5.70;;;2.20;;
57297;SDS011;43147;50.972;18.210;2023-05-14T12:15:57;4.30;;;3.20;;
57297;SDS011;43147;50.972;18.210;2023-05-14T12:18:26;4.30;;;2.50;;
57297;SDS011;43147;50.972;18.210;2023-05-14T12:20:53;7.10;;;2.70;;
57297;SDS011;43147;50.972;18.210;2023-05-14T12:23:26;7.70;;;2.80;;
57297;SDS011;43147;50.972;18.210;2023-05-14T12:25:52;2.90;;;2.60;;
57297;SDS011;43147;50.972;18.210;2023-05-14T12:28:18;4.10;;;2.60;;
57297;SDS011;43147;50.972;18.210;2023-05-14T12:30:44;2.90;;;2.40;;
57297;SDS011;43147;50.972;18.210;2023-05-14T12:33:11;3.50;;;2.90;;
57297;SDS011;43147;50.972;18.210;2023-05-14T12:35:39;7.30;;;2.90;;
57297;SDS011;43147;50.972;18.210;2023-05-14T12:38:05;3.00;;;2.50;;
57297;SDS011;43147;50.972;18.210;2023-05-14T12:40:31;3.50;;;2.40;;
57297;SDS011;43147;50.972;18.210;2023-05-14T12:42:56;4.00;;;2.80;;
57297;SDS011;43147;50.972;18.210;2023-05-14T12:45:22;3.80;;;2.90;;
57297;SDS011;43147;50.972;18.210;2023-05-14T12:47:48;7.40;;;3.10;;
57297;SDS011;43147;50.972;18.210;2023-05-14T12:50:13;5.60;;;2.90;;
57297;SDS011;43147;50.972;18.210;2023-05-14T12:52:39;3.80;;;3.10;;
57297;SDS011;43147;50.972;18.210;2023-05-14T12:55:05;3.20;;;2.80;;
57297;SDS011;43147;50.972;18.210;2023-05-14T12:57:32;4.30;;;2.30;;
57297;SDS011;43147;50.972;18.210;2023-05-14T13:00:00;4.20;;;2.90;;
57297;SDS011;43147;50.972;18.210;2023-05-14T13:02:26;5.30;;;2.80;;
57297;SDS011;43147;50.972;18.210;2023-05-14T13:04:51;3.00;;;2.50;;
57297;SDS011;43147;50.972;18.210;2023-05-14T13:07:17;6.80;;;6.10;;
57297;SDS011;43147;50.972;18.210;2023-05-14T13:09:42;3.30;;;2.70;;
57297;SDS011;43147;50.972;18.210;2023-05-14T13:12:08;4.80;;;2.60;;
57297;SDS011;43147;50.972;18.210;2023-05-14T13:14:34;2.70;;;2.40;;
57297;SDS011;43147;50.972;18.210;2023-05-14T13:17:00;4.40;;;3.10;;
57297;SDS011;43147;50.972;18.210;2023-05-14T13:19:26;3.80;;;2.60;;
57297;SDS011;43147;50.972;18.210;2023-05-14T13:21:52;4.20;;;2.60;;
57297;SDS011;43147;50.972;18.210;2023-05-14T13:24:18;3.90;;;2.80;;
57297;SDS011;43147;50.972;18.210;2023-05-14T13:26:43;4.20;;;2.60;;
57297;SDS011;43147;50.972;18.210;2023-05-14T13:29:09;4.30;;;3.80;;
57297;SDS011;43147;50.972;18.210;2023-05-14T13:31:35;4.20;;;3.10;;
57297;SDS011;43147;50.972;18.210;2023-05-14T13:34:01;3.30;;;2.60;;
57297;SDS011;43147;50.972;18.210;2023-05-14T13:36:27;3.30;;;3.00;;
57297;SDS011;43147;50.972;18.210;2023-05-14T13:38:55;7.30;;;3.00;;
57297;SDS011;43147;50.972;18.210;2023-05-14T13:41:21;2.80;;;2.60;;
57297;SDS011;43147;50.972;18.210;2023-05-14T13:43:46;4.10;;;2.80;;
57297;SDS011;43147;50.972;18.210;2023-05-14T13:46:12;6.00;;;2.80;;
57297;SDS011;43147;50.972;18.210;2023-05-14T13:48:38;5.70;;;3.80;;
57297;SDS011;43147;50.972;18.210;2023-05-14T13:51:03;6.30;;;3.10;;
57297;SDS011;43147;50.972;18.210;2023-05-14T13:53:29;4.90;;;3.60;;
57297;SDS011;43147;50.972;18.210;2023-05-14T13:55:54;3.70;;;3.40;;
57297;SDS011;43147;50.972;18.210;2023-05-14T13:58:25;3.70;;;3.30;;
57297;SDS011;43147;50.972;18.210;2023-05-14T14:00:52;4.70;;;3.10;;
57297;SDS011;43147;50.972;18.210;2023-05-14T14:03:18;5.60;;;3.60;;
57297;SDS011;43147;50.972;18.210;2023-05-14T14:05:43;5.40;;;3.50;;
57297;SDS011;43147;50.972;18.210;2023-05-14T14:08:09;6.40;;;3.00;;
57297;SDS011;43147;50.972;18.210;2023-05-14T14:10:35;5.80;;;3.10;;
57297;SDS011;43147;50.972;18.210;2023-05-14T14:13:00;9.00;;;4.90;;
57297;SDS011;43147;50.972;18.210;2023-05-14T14:15:26;4.10;;;3.60;;
57297;SDS011;43147;50.972;18.210;2023-05-14T14:17:52;73.10;;;37.80;;
57297;SDS011;43147;50.972;18.210;2023-05-14T14:20:18;8.00;;;5.30;;
57297;SDS011;43147;50.972;18.210;2023-05-14T14:22:46;5.30;;;3.50;;
57297;SDS011;43147;50.972;18.210;2023-05-14T14:25:14;5.60;;;3.80;;
57297;SDS011;43147;50.972;18.210;2023-05-14T14:27:40;4.00;;;3.30;;
57297;SDS011;43147;50.972;18.210;2023-05-14T14:30:06;7.70;;;3.70;;